createdAt,value
2023-01-15T00:00:11.157Z,45.62
2023-01-15T00:02:37.518Z,44.53
2023-01-15T00:05:03.937Z,43.60
2023-01-15T00:07:30.283Z,43.87
2023-01-15T00:09:56.599Z,44.45
2023-01-15T00:12:22.928Z,45.43
2023-01-15T00:14:49.820Z,45.40
2023-01-15T00:19:45.944Z,47.05
2023-01-15T00:22:12.322Z,47.46
2023-01-15T00:24:39.044Z,47.63
2023-01-15T00:27:05.438Z,48.92
2023-01-15T00:29:31.785Z,49.39
2023-01-15T00:31:58.110Z,50.33
2023-01-15T00:34:24.983Z,50.87
2023-01-15T00:36:51.419Z,51.40
2023-01-15T00:39:17.780Z,51.35
2023-01-15T00:41:44.235Z,51.16
2023-01-15T00:44:10.762Z,52.08
2023-01-15T00:46:37.130Z,52.04
2023-01-15T00:49:03.479Z,52.63
2023-01-15T00:51:29.845Z,53.27
2023-01-15T00:53:56.239Z,54.33
2023-01-15T00:56:22.639Z,55.11
2023-01-15T00:58:48.977Z,54.78
2023-01-15T01:01:15.365Z,55.79
2023-01-15T01:03:41.889Z,55.21
2023-01-15T01:06:08.222Z,55.01
2023-01-15T01:08:34.600Z,55.69
2023-01-15T01:11:00.940Z,55.90
2023-01-15T01:13:27.306Z,56.50
2023-01-15T01:15:53.679Z,56.48
2023-01-15T01:18:20.026Z,56.30
2023-01-15T01:20:46.405Z,56.68
2023-01-15T01:23:12.789Z,57.20
2023-01-15T01:25:39.121Z,57.15
2023-01-15T01:28:05.480Z,58.46
2023-01-15T01:30:31.798Z,59.59
2023-01-15T01:32:58.140Z,60.42
2023-01-15T01:35:24.506Z,60.38
2023-01-15T01:37:50.900Z,60.83
2023-01-15T01:40:17.306Z,60.91
2023-01-15T01:42:43.635Z,61.52
2023-01-15T01:45:10.030Z,61.43
2023-01-15T01:47:36.353Z,61.64
2023-01-15T01:50:02.674Z,61.00
2023-01-15T01:52:28.991Z,61.21
2023-01-15T01:54:55.356Z,60.87
2023-01-15T01:57:22.427Z,60.43
2023-01-15T01:59:48.886Z,60.58
2023-01-15T02:02:15.378Z,60.57
2023-01-15T02:04:41.958Z,60.81
2023-01-15T02:07:08.332Z,60.91
2023-01-15T02:09:34.858Z,60.59
2023-01-15T02:12:01.250Z,61.95
2023-01-15T02:14:27.588Z,61.88
2023-01-15T02:16:53.954Z,62.65
2023-01-15T02:19:20.299Z,62.32
2023-01-15T02:21:46.708Z,62.31
2023-01-15T02:24:13.077Z,62.15
2023-01-15T02:26:39.779Z,61.72
2023-01-15T02:29:07.252Z,62.34
2023-01-15T02:31:33.677Z,61.60
2023-01-15T02:34:00.123Z,61.76
2023-01-15T02:36:26.771Z,61.00
2023-01-15T02:38:53.144Z,61.03
2023-01-15T02:41:19.779Z,60.17
2023-01-15T02:43:46.286Z,60.26
2023-01-15T02:46:12.741Z,60.44
2023-01-15T02:48:39.128Z,60.32
2023-01-15T02:51:06.518Z,60.10
2023-01-15T02:53:32.899Z,59.76
2023-01-15T02:55:59.239Z,60.42
2023-01-15T02:58:25.981Z,60.81
2023-01-15T03:00:52.482Z,60.53
2023-01-15T03:03:18.885Z,61.33
2023-01-15T03:05:45.225Z,61.98
2023-01-15T03:08:11.604Z,61.80
2023-01-15T03:10:37.944Z,62.50
2023-01-15T03:13:04.275Z,62.87
2023-01-15T03:15:33.700Z,62.53
2023-01-15T03:18:00.131Z,63.54
2023-01-15T03:20:27.521Z,63.69
2023-01-15T03:22:53.877Z,63.32
2023-01-15T03:25:20.256Z,64.68
2023-01-15T03:27:46.610Z,64.97
2023-01-15T03:30:12.981Z,65.29
2023-01-15T03:32:39.390Z,66.39
2023-01-15T03:35:06.783Z,66.46
2023-01-15T03:37:33.464Z,66.93
2023-01-15T03:39:59.832Z,67.31
2023-01-15T03:42:26.209Z,67.15
2023-01-15T03:44:52.571Z,67.64
2023-01-15T03:47:18.982Z,66.87
2023-01-15T03:49:45.300Z,67.72
2023-01-15T03:52:11.626Z,67.58
2023-01-15T03:54:37.989Z,68.13
2023-01-15T03:57:04.336Z,68.09
2023-01-15T03:59:30.715Z,68.82
2023-01-15T04:01:57.525Z,67.97
2023-01-15T04:04:23.998Z,69.48
2023-01-15T04:06:50.354Z,69.70
2023-01-15T04:09:16.724Z,69.58
2023-01-15T04:11:43.249Z,69.16
2023-01-15T04:14:11.959Z,70.63
2023-01-15T04:16:39.352Z,70.49
2023-01-15T04:19:05.705Z,69.44
2023-01-15T04:21:32.194Z,69.98
2023-01-15T04:23:58.560Z,70.51
2023-01-15T04:26:27.646Z,69.86
2023-01-15T04:28:54.222Z,69.74
2023-01-15T04:31:20.649Z,70.30
2023-01-15T04:33:49.537Z,70.59
2023-01-15T04:36:15.921Z,70.65
2023-01-15T04:38:42.603Z,71.26
2023-01-15T04:41:09.082Z,71.22
2023-01-15T04:43:35.544Z,71.31
2023-01-15T04:46:02.139Z,69.59
2023-01-15T04:48:28.480Z,70.21
2023-01-15T04:50:58.228Z,69.43
2023-01-15T04:53:24.963Z,69.50
2023-01-15T04:55:51.320Z,69.03
2023-01-15T04:58:17.653Z,69.18
2023-01-15T05:00:44.034Z,69.23
2023-01-15T05:03:10.431Z,69.37
2023-01-15T05:05:36.788Z,68.81
2023-01-15T05:08:05.212Z,68.89
2023-01-15T05:10:31.683Z,69.59
2023-01-15T05:12:59.221Z,68.69
2023-01-15T05:15:25.618Z,68.49
2023-01-15T05:17:52.001Z,68.33
2023-01-15T05:20:23.651Z,67.12
2023-01-15T05:22:50.007Z,66.80
2023-01-15T05:25:16.401Z,66.44
2023-01-15T05:27:42.791Z,66.34
2023-01-15T05:30:09.171Z,66.42
2023-01-15T05:32:35.764Z,64.59
2023-01-15T05:35:02.468Z,63.67
2023-01-15T05:37:28.848Z,64.49
2023-01-15T05:39:55.185Z,64.10
2023-01-15T05:42:21.546Z,63.47
2023-01-15T05:44:47.926Z,63.18
2023-01-15T05:47:14.312Z,63.33
2023-01-15T05:49:40.651Z,62.16
2023-01-15T05:52:07.013Z,61.14
2023-01-15T05:54:33.354Z,61.07
2023-01-15T05:56:59.689Z,60.11
2023-01-15T05:59:26.243Z,60.73
2023-01-15T06:01:52.752Z,60.32
2023-01-15T06:04:19.195Z,60.56
2023-01-15T06:06:48.092Z,60.69
2023-01-15T06:09:14.475Z,60.71
2023-01-15T06:11:40.842Z,60.47
2023-01-15T06:14:07.418Z,59.71
2023-01-15T06:16:34.119Z,59.51
2023-01-15T06:19:00.508Z,58.90
2023-01-15T06:21:26.897Z,58.53
2023-01-15T06:23:53.240Z,58.82
2023-01-15T06:26:19.623Z,57.53
2023-01-15T06:28:45.979Z,57.90
2023-01-15T06:31:12.394Z,58.16
2023-01-15T06:33:38.813Z,57.67
2023-01-15T06:36:06.219Z,57.11
2023-01-15T06:38:32.627Z,56.68
2023-01-15T06:40:59.002Z,56.14
2023-01-15T06:43:25.474Z,56.29
2023-01-15T06:45:51.853Z,56.13
2023-01-15T06:48:18.181Z,56.46
2023-01-15T06:50:44.558Z,56.15
2023-01-15T06:53:10.936Z,56.29
2023-01-15T06:55:38.299Z,55.48
2023-01-15T06:58:05.006Z,55.40
2023-01-15T07:00:31.390Z,55.54
2023-01-15T07:02:57.769Z,54.47
2023-01-15T07:05:26.194Z,54.07
2023-01-15T07:07:52.672Z,54.51
2023-01-15T07:10:19.047Z,54.13
2023-01-15T07:12:45.488Z,53.94
2023-01-15T07:15:11.831Z,53.03
2023-01-15T07:17:38.205Z,53.44
2023-01-15T07:20:04.705Z,53.02
2023-01-15T07:22:31.053Z,53.19
2023-01-15T07:24:57.846Z,53.56
2023-01-15T07:27:24.863Z,53.41
2023-01-15T07:29:51.305Z,53.13
2023-01-15T07:32:18.195Z,52.31
2023-01-15T07:34:44.578Z,52.58
2023-01-15T07:37:10.920Z,53.26
2023-01-15T07:39:37.299Z,53.08
2023-01-15T07:42:03.693Z,53.33
2023-01-15T07:44:32.323Z,52.38
2023-01-15T07:46:58.707Z,52.49
2023-01-15T07:49:25.054Z,53.06
2023-01-15T07:51:51.486Z,53.18
2023-01-15T07:54:17.884Z,53.35
2023-01-15T07:56:46.492Z,53.26
2023-01-15T07:59:12.839Z,53.53
2023-01-15T08:01:39.457Z,53.73
2023-01-15T08:04:06.509Z,54.48
2023-01-15T08:06:32.905Z,54.92
2023-01-15T08:09:03.841Z,55.23
2023-01-15T08:11:30.221Z,56.40
2023-01-15T08:13:56.596Z,56.49
2023-01-15T08:16:23.172Z,57.78
2023-01-15T08:18:51.904Z,58.38
2023-01-15T08:21:18.287Z,59.25
2023-01-15T08:23:44.657Z,60.52
2023-01-15T08:26:10.990Z,60.75
2023-01-15T08:28:37.351Z,60.44
2023-01-15T08:31:03.731Z,60.76
2023-01-15T08:33:30.329Z,61.92
2023-01-15T08:35:56.774Z,62.70
2023-01-15T08:38:25.169Z,64.18
2023-01-15T08:40:51.803Z,65.94
2023-01-15T08:43:18.202Z,67.90
2023-01-15T08:45:46.597Z,69.79
2023-01-15T08:48:12.970Z,71.89
2023-01-15T08:50:39.421Z,73.72
2023-01-15T08:53:07.809Z,74.42
2023-01-15T08:55:34.360Z,74.72
2023-01-15T08:58:00.907Z,74.64
2023-01-15T09:00:27.291Z,76.09
2023-01-15T09:02:53.711Z,75.88
2023-01-15T09:05:20.368Z,76.93
2023-01-15T09:07:48.832Z,77.38
2023-01-15T09:10:17.838Z,77.73
2023-01-15T09:12:44.212Z,77.80
2023-01-15T09:15:10.552Z,77.03
2023-01-15T09:17:36.877Z,77.40
2023-01-15T09:20:03.739Z,76.71
2023-01-15T09:22:30.250Z,76.26
2023-01-15T09:24:59.409Z,76.83
2023-01-15T09:27:26.210Z,76.77
2023-01-15T09:29:54.648Z,77.13
2023-01-15T09:32:23.325Z,77.16
2023-01-15T09:34:49.697Z,77.25
2023-01-15T09:37:18.878Z,76.43
2023-01-15T09:39:45.248Z,76.83
2023-01-15T09:42:11.639Z,76.46
2023-01-15T09:44:40.322Z,76.09
2023-01-15T09:47:07.710Z,76.79
2023-01-15T09:49:34.036Z,75.11
2023-01-15T09:52:00.395Z,75.67
2023-01-15T09:54:29.357Z,75.14
2023-01-15T09:56:55.706Z,75.67
2023-01-15T09:59:22.153Z,75.37
2023-01-15T10:01:48.536Z,75.48
2023-01-15T10:04:15.034Z,75.25
2023-01-15T10:06:41.597Z,75.66
2023-01-15T10:09:07.950Z,75.26
2023-01-15T10:11:34.409Z,75.64
2023-01-15T10:14:00.846Z,75.27
2023-01-15T10:16:34.401Z,75.76
2023-01-15T10:19:03.038Z,75.97
2023-01-15T10:21:31.740Z,76.08
2023-01-15T10:23:58.320Z,74.95
2023-01-15T10:26:25.733Z,77.13
2023-01-15T10:28:52.483Z,75.44
2023-01-15T10:31:19.896Z,74.49
2023-01-15T10:33:46.320Z,75.72
2023-01-15T10:36:12.706Z,75.27
2023-01-15T10:38:40.340Z,75.88
2023-01-15T10:41:06.687Z,76.27
2023-01-15T10:43:33.100Z,76.44
2023-01-15T10:45:59.485Z,76.13
2023-01-15T10:48:25.864Z,77.75
2023-01-15T10:50:52.506Z,76.26
2023-01-15T10:53:18.957Z,75.56
2023-01-15T10:55:45.566Z,75.34
2023-01-15T10:58:12.296Z,76.91
2023-01-15T11:00:38.908Z,75.27
2023-01-15T11:03:05.421Z,74.87
2023-01-15T11:05:31.791Z,75.44
2023-01-15T11:10:44.669Z,75.07
2023-01-15T11:13:11.026Z,75.91
2023-01-15T11:15:37.597Z,76.71
2023-01-15T11:18:04.075Z,76.93
2023-01-15T11:20:30.521Z,76.13
2023-01-15T11:23:02.240Z,75.35
2023-01-15T11:25:28.804Z,76.48
2023-01-15T11:27:57.721Z,77.31
2023-01-15T11:30:24.287Z,77.56
2023-01-15T11:32:53.986Z,77.88
2023-01-15T11:37:57.746Z,77.97
2023-01-15T11:40:24.128Z,77.16
2023-01-15T11:42:51.521Z,77.62
2023-01-15T11:45:20.324Z,77.68
2023-01-15T11:47:47.587Z,78.60
2023-01-15T11:50:14.163Z,78.78
2023-01-15T11:52:40.554Z,78.48
2023-01-15T11:55:06.972Z,78.15
2023-01-15T11:57:33.340Z,78.61
2023-01-15T12:00:00.895Z,79.13
2023-01-15T12:02:29.378Z,78.30
2023-01-15T12:04:58.038Z,77.83
2023-01-15T12:07:25.557Z,77.19
2023-01-15T12:09:51.897Z,77.98
2023-01-15T12:12:18.225Z,78.21
2023-01-15T12:14:44.569Z,77.33
2023-01-15T12:17:11.342Z,76.97
2023-01-15T12:19:37.833Z,77.13
2023-01-15T12:22:07.071Z,76.82
2023-01-15T12:24:35.684Z,77.26
2023-01-15T12:29:41.572Z,77.73
2023-01-15T12:32:15.778Z,77.46
2023-01-15T12:34:45.857Z,77.50
2023-01-15T12:37:12.311Z,78.43
2023-01-15T12:39:38.726Z,79.07
2023-01-15T12:42:05.302Z,79.07
2023-01-15T12:44:32.218Z,79.02
2023-01-15T12:47:02.944Z,79.02
2023-01-15T12:49:30.897Z,78.75
2023-01-15T12:51:57.329Z,78.38
2023-01-15T12:54:23.841Z,77.77
2023-01-15T12:56:52.333Z,77.82
2023-01-15T12:59:18.880Z,77.65
2023-01-15T13:01:47.706Z,78.16
2023-01-15T13:04:15.552Z,77.47
2023-01-15T13:06:44.217Z,78.17
2023-01-15T13:09:10.598Z,77.77
2023-01-15T13:11:36.981Z,78.11
2023-01-15T13:14:03.372Z,78.08
2023-01-15T13:16:30.913Z,78.46
2023-01-15T13:18:59.331Z,78.86
2023-01-15T13:21:25.888Z,78.71
2023-01-15T13:23:53.351Z,78.55
2023-01-15T13:26:20.420Z,78.93
2023-01-15T13:28:48.868Z,78.62
2023-01-15T13:31:15.273Z,79.17
2023-01-15T13:33:42.242Z,78.52
2023-01-15T13:36:08.660Z,77.84
2023-01-15T13:38:35.006Z,78.59
2023-01-15T13:41:01.497Z,78.95
2023-01-15T13:43:30.295Z,79.65
2023-01-15T13:45:56.916Z,80.37
2023-01-15T13:48:23.847Z,78.83
2023-01-15T13:50:50.470Z,77.66
2023-01-15T13:53:16.838Z,78.34
2023-01-15T13:55:43.227Z,77.81
2023-01-15T13:58:09.772Z,77.85
2023-01-15T14:00:36.320Z,77.82
2023-01-15T14:03:02.847Z,77.53
2023-01-15T14:05:29.317Z,77.27
2023-01-15T14:07:57.714Z,76.47
2023-01-15T14:10:24.674Z,76.96
2023-01-15T14:12:52.026Z,76.45
2023-01-15T14:15:19.409Z,75.77
2023-01-15T14:17:45.754Z,75.49
2023-01-15T14:20:12.233Z,76.31
2023-01-15T14:25:20.061Z,75.63
2023-01-15T14:27:46.418Z,75.80
2023-01-15T14:30:12.800Z,75.05
2023-01-15T14:32:39.131Z,75.80
2023-01-15T14:35:05.593Z,74.13
2023-01-15T14:37:32.571Z,74.83
2023-01-15T14:39:58.951Z,74.83
2023-01-15T14:42:25.299Z,73.94
2023-01-15T14:44:52.625Z,74.65
2023-01-15T14:47:19.398Z,75.16
2023-01-15T14:49:45.810Z,74.80
2023-01-15T14:52:12.213Z,74.46
2023-01-15T14:54:38.589Z,74.92
2023-01-15T14:57:04.962Z,74.91
2023-01-15T14:59:33.951Z,74.48
2023-01-15T15:02:02.501Z,74.53
2023-01-15T15:04:28.984Z,73.47
2023-01-15T15:06:58.355Z,74.64
2023-01-15T15:09:27.563Z,73.97
2023-01-15T15:11:53.913Z,72.79
2023-01-15T15:14:20.276Z,72.95
2023-01-15T15:16:46.764Z,72.42
2023-01-15T15:19:13.121Z,71.03
2023-01-15T15:21:39.505Z,71.55
2023-01-15T15:24:05.913Z,71.52
2023-01-15T15:26:32.416Z,70.79
2023-01-15T15:28:58.761Z,71.31
2023-01-15T15:31:27.173Z,71.05
2023-01-15T15:33:59.489Z,71.97
2023-01-15T15:36:26.705Z,70.52
2023-01-15T15:38:55.223Z,71.04
2023-01-15T15:41:21.676Z,69.83
2023-01-15T15:43:48.100Z,70.48
2023-01-15T16:13:09.635Z,72.75
2023-01-15T16:15:36.033Z,71.57
2023-01-15T16:18:02.797Z,71.57
2023-01-15T16:20:29.152Z,71.40
2023-01-15T16:22:55.499Z,71.68
2023-01-15T16:25:22.922Z,72.32
2023-01-15T16:27:49.417Z,71.88
2023-01-15T16:30:16.766Z,72.00
2023-01-15T16:32:43.102Z,72.96
2023-01-15T16:35:10.505Z,73.17
2023-01-15T16:37:36.843Z,73.58
2023-01-15T16:40:03.260Z,73.51
2023-01-15T16:42:29.589Z,73.37
2023-01-15T16:44:55.966Z,73.60
2023-01-15T16:47:22.574Z,73.97
2023-01-15T16:49:48.955Z,73.24
2023-01-15T16:52:15.329Z,72.53
2023-01-15T16:54:41.716Z,72.67
2023-01-15T16:57:08.286Z,72.78
2023-01-15T16:59:34.669Z,72.27
2023-01-15T17:02:02.140Z,72.91
2023-01-15T17:04:31.627Z,72.83
2023-01-15T17:06:58.003Z,72.38
2023-01-15T17:09:25.682Z,71.96
2023-01-15T17:11:53.258Z,71.60
2023-01-15T17:14:19.606Z,70.99
2023-01-15T17:16:46.166Z,71.65
2023-01-15T17:19:12.566Z,71.71
2023-01-15T17:21:39.137Z,72.13
2023-01-15T17:24:05.616Z,71.95
2023-01-15T17:26:31.994Z,71.41
2023-01-15T17:28:58.331Z,71.97
2023-01-15T17:31:25.657Z,71.30
2023-01-15T17:33:54.672Z,71.31
2023-01-15T17:36:21.048Z,71.28
2023-01-15T17:38:47.435Z,71.98
2023-01-15T17:41:13.947Z,72.39
2023-01-15T17:43:40.523Z,72.32
2023-01-15T17:46:06.923Z,72.35
2023-01-15T17:48:33.320Z,72.72
2023-01-15T17:51:01.668Z,72.46
2023-01-15T17:53:28.059Z,72.97
2023-01-15T17:55:54.465Z,73.29
2023-01-15T17:58:21.219Z,73.41
2023-01-15T18:00:48.620Z,72.69
2023-01-15T18:03:15.635Z,73.15
2023-01-15T18:05:42.019Z,73.20
2023-01-15T18:08:10.901Z,73.63
2023-01-15T18:10:37.257Z,73.96
2023-01-15T18:13:04.986Z,74.14
2023-01-15T18:15:33.475Z,74.65
2023-01-15T18:17:59.885Z,74.96
2023-01-15T18:20:26.265Z,74.81
2023-01-15T18:22:54.964Z,74.90
2023-01-15T18:25:21.376Z,74.94
2023-01-15T18:27:47.908Z,75.28
2023-01-15T18:30:14.297Z,75.36
2023-01-15T18:32:40.992Z,75.24
2023-01-15T18:35:07.671Z,75.16
2023-01-15T18:37:36.340Z,75.26
2023-01-15T18:40:02.697Z,75.48
2023-01-15T18:42:29.484Z,75.70
2023-01-15T18:44:55.867Z,76.00
2023-01-15T18:47:32.988Z,76.25
2023-01-15T18:49:59.460Z,76.60
2023-01-15T18:52:28.161Z,76.65
2023-01-15T18:54:54.576Z,76.63
2023-01-15T18:57:20.930Z,76.82
2023-01-15T18:59:49.580Z,76.78
2023-01-15T19:02:17.025Z,77.02
2023-01-15T19:04:44.105Z,76.78
2023-01-15T19:07:14.336Z,76.80
2023-01-15T19:09:40.886Z,76.78
2023-01-15T19:12:08.118Z,76.60
2023-01-15T19:14:36.880Z,76.60
2023-01-15T19:17:05.797Z,76.38
2023-01-15T19:19:32.406Z,76.34
2023-01-15T19:21:58.802Z,76.48
2023-01-15T19:24:25.343Z,76.46
2023-01-15T19:26:51.814Z,76.25
2023-01-15T19:29:20.246Z,76.54
2023-01-15T19:31:47.091Z,76.22
2023-01-15T19:34:33.262Z,76.71
2023-01-15T19:36:59.805Z,77.15
2023-01-15T19:39:26.481Z,77.05
2023-01-15T19:41:55.131Z,77.08
2023-01-15T19:44:22.544Z,77.18
2023-01-15T19:46:48.995Z,77.20
2023-01-15T19:49:15.422Z,76.68
2023-01-15T19:51:44.123Z,76.47
2023-01-15T19:54:10.728Z,76.34
2023-01-15T19:56:37.087Z,76.66
2023-01-15T19:59:06.582Z,77.05
2023-01-15T20:01:33.090Z,77.25
2023-01-15T20:03:59.698Z,77.68
2023-01-15T20:06:26.310Z,77.35
2023-01-15T20:08:54.849Z,77.57
2023-01-15T20:11:21.404Z,77.01
2023-01-15T20:13:47.810Z,74.73
2023-01-15T20:16:14.543Z,72.99
2023-01-15T20:18:43.172Z,69.92
2023-01-15T20:21:09.859Z,69.84
2023-01-15T20:23:36.817Z,69.43
2023-01-15T20:26:06.953Z,69.19
2023-01-15T20:28:33.522Z,69.15
2023-01-15T20:31:04.270Z,68.99
2023-01-15T20:33:31.887Z,68.85
2023-01-15T20:35:59.014Z,68.62
2023-01-15T20:38:27.720Z,69.17
2023-01-15T20:40:54.537Z,68.09
2023-01-15T20:43:20.955Z,68.93
2023-01-15T20:45:47.750Z,69.32
2023-01-15T20:48:15.211Z,68.60
2023-01-15T20:50:43.668Z,68.57
2023-01-15T20:53:10.333Z,69.07
2023-01-15T20:55:54.435Z,68.64
2023-01-15T20:58:25.446Z,68.59
2023-01-15T21:00:52.174Z,70.19
2023-01-15T21:03:18.860Z,70.90
2023-01-15T21:05:45.256Z,71.21
2023-01-15T21:08:13.925Z,72.13
2023-01-15T21:10:40.527Z,71.87
2023-01-15T21:13:06.945Z,72.18
2023-01-15T21:15:34.290Z,71.20
2023-01-15T21:18:03.974Z,71.01
2023-01-15T21:20:30.802Z,72.10
2023-01-15T21:22:57.158Z,71.98
2023-01-15T21:25:23.789Z,72.52
2023-01-15T21:27:50.239Z,72.51
2023-01-15T21:30:16.625Z,72.54
2023-01-15T21:32:43.170Z,73.51
2023-01-15T21:35:10.412Z,72.74
2023-01-15T21:37:38.962Z,72.87
2023-01-15T21:40:05.309Z,71.88
2023-01-15T21:42:31.719Z,69.57
2023-01-15T21:44:58.103Z,70.51
2023-01-15T21:47:24.498Z,72.37
2023-01-15T21:49:51.075Z,70.78
2023-01-15T21:52:17.585Z,70.02
2023-01-15T21:54:45.030Z,69.37
2023-01-15T21:57:11.426Z,70.22
2023-01-15T21:59:44.949Z,69.23
2023-01-15T22:02:12.494Z,69.17
2023-01-15T22:04:39.958Z,68.72
2023-01-15T22:07:07.418Z,68.43
2023-01-15T22:09:34.804Z,68.83
2023-01-15T22:12:08.719Z,70.11
2023-01-15T22:14:35.074Z,71.33
2023-01-15T22:17:01.474Z,71.28
2023-01-15T22:19:27.872Z,70.89
2023-01-15T22:21:54.480Z,71.04
2023-01-15T22:24:20.878Z,71.64
2023-01-15T22:26:47.228Z,69.75
2023-01-15T22:29:13.778Z,70.36
2023-01-15T22:31:40.129Z,69.44
2023-01-15T22:34:06.469Z,69.51
2023-01-15T22:36:33.011Z,70.92
2023-01-15T22:39:01.581Z,70.72
2023-01-15T22:41:28.389Z,69.72
2023-01-15T22:43:55.037Z,68.83
2023-01-15T22:46:21.567Z,67.78
2023-01-15T22:48:47.949Z,64.58
2023-01-15T22:51:16.867Z,64.87
2023-01-15T22:53:43.198Z,63.27
2023-01-15T22:56:09.620Z,63.12
2023-01-15T22:58:38.256Z,63.55
2023-01-15T23:01:05.069Z,63.93
2023-01-15T23:03:31.719Z,64.69
2023-01-15T23:05:59.093Z,63.93
2023-01-15T23:08:25.434Z,62.98
2023-01-15T23:10:54.309Z,63.28
2023-01-15T23:13:27.959Z,63.10
2023-01-15T23:15:55.414Z,63.92
2023-01-15T23:18:21.814Z,62.81
2023-01-15T23:20:48.293Z,63.81
2023-01-15T23:23:15.675Z,64.50
2023-01-15T23:25:42.009Z,65.31
2023-01-15T23:28:09.365Z,66.36
2023-01-15T23:30:37.680Z,66.17
2023-01-15T23:33:04.009Z,66.62
2023-01-15T23:35:30.455Z,66.18
2023-01-15T23:37:57.833Z,66.15
2023-01-15T23:40:25.104Z,65.75
2023-01-15T23:42:51.602Z,65.99
2023-01-15T23:45:17.957Z,66.70
2023-01-15T23:47:44.596Z,67.19
2023-01-15T23:50:11.201Z,68.41
2023-01-15T23:52:41.045Z,69.64
2023-01-15T23:55:08.433Z,70.37
2023-01-15T23:57:34.770Z,71.09
